sensor_id;sensor_type;location;lat;lon;timestamp;pressure;altitude;pressure_sealevel;temperature;humidity
29839;BME280;18669;53.356;-1.464;2022-08-25T00:01:55;100832.84;;;20.24;100.00
29839;BME280;18669;53.356;-1.464;2022-08-25T00:04:22;100816.94;;;20.06;100.00
29839;BME280;18669;53.356;-1.464;2022-08-25T00:06:49;100822.63;;;20.00;100.00
29839;BME280;18669;53.356;-1.464;2022-08-25T00:09:17;100830.28;;;20.06;100.00
29839;BME280;18669;53.356;-1.464;2022-08-25T00:11:46;100838.38;;;20.05;100.00
29839;BME280;18669;53.356;-1.464;2022-08-25T00:14:20;100846.50;;;20.03;100.00
29839;BME280;18669;53.356;-1.464;2022-08-25T00:16:48;100848.56;;;19.98;100.00
29839;BME280;18669;53.356;-1.464;2022-08-25T00:19:20;100856.22;;;20.04;100.00
29839;BME280;18669;53.356;-1.464;2022-08-25T00:21:47;100851.06;;;20.01;100.00
29839;BME280;18669;53.356;-1.464;2022-08-25T00:24:15;100846.50;;;20.03;100.00
29839;BME280;18669;53.356;-1.464;2022-08-25T00:26:44;100847.63;;;19.99;100.00
29839;BME280;18669;53.356;-1.464;2022-08-25T00:29:11;100854.56;;;19.86;100.00
29839;BME280;18669;53.356;-1.464;2022-08-25T00:31:39;100853.09;;;19.80;100.00
29839;BME280;18669;53.356;-1.464;2022-08-25T00:34:08;100854.66;;;19.84;100.00
29839;BME280;18669;53.356;-1.464;2022-08-25T00:36:35;100846.47;;;19.71;100.00
29839;BME280;18669;53.356;-1.464;2022-08-25T00:39:03;100849.56;;;19.79;100.00
29839;BME280;18669;53.356;-1.464;2022-08-25T00:41:29;100841.75;;;19.76;100.00
29839;BME280;18669;53.356;-1.464;2022-08-25T00:43:58;100843.88;;;19.86;100.00
29839;BME280;18669;53.356;-1.464;2022-08-25T00:46:29;100841.63;;;19.78;100.00
29839;BME280;18669;53.356;-1.464;2022-08-25T00:49:06;100843.63;;;19.74;100.00
29839;BME280;18669;53.356;-1.464;2022-08-25T00:51:45;100842.25;;;19.83;100.00
29839;BME280;18669;53.356;-1.464;2022-08-25T00:54:16;100844.81;;;19.85;100.00
29839;BME280;18669;53.356;-1.464;2022-08-25T00:56:44;100835.69;;;19.73;100.00
29839;BME280;18669;53.356;-1.464;2022-08-25T00:59:12;100830.97;;;19.78;100.00
29839;BME280;18669;53.356;-1.464;2022-08-25T01:01:39;100823.22;;;19.57;100.00
29839;BME280;18669;53.356;-1.464;2022-08-25T01:04:05;100829.06;;;19.64;100.00
29839;BME280;18669;53.356;-1.464;2022-08-25T01:06:35;100827.78;;;19.71;100.00
29839;BME280;18669;53.356;-1.464;2022-08-25T01:09:03;100825.88;;;19.57;100.00
29839;BME280;18669;53.356;-1.464;2022-08-25T01:11:30;100816.66;;;19.47;100.00
29839;BME280;18669;53.356;-1.464;2022-08-25T01:13:56;100830.25;;;19.42;100.00
29839;BME280;18669;53.356;-1.464;2022-08-25T01:16:24;100834.53;;;19.29;100.00
29839;BME280;18669;53.356;-1.464;2022-08-25T01:18:53;100834.44;;;19.30;100.00
29839;BME280;18669;53.356;-1.464;2022-08-25T01:21:23;100832.19;;;19.22;100.00
29839;BME280;18669;53.356;-1.464;2022-08-25T01:23:50;100825.28;;;19.18;100.00
29839;BME280;18669;53.356;-1.464;2022-08-25T01:26:22;100839.94;;;19.27;100.00
29839;BME280;18669;53.356;-1.464;2022-08-25T01:28:50;100846.22;;;19.26;100.00
29839;BME280;18669;53.356;-1.464;2022-08-25T01:31:36;100847.50;;;19.19;100.00
29839;BME280;18669;53.356;-1.464;2022-08-25T01:34:05;100844.75;;;19.20;100.00
29839;BME280;18669;53.356;-1.464;2022-08-25T01:36:32;100845.84;;;19.16;100.00
29839;BME280;18669;53.356;-1.464;2022-08-25T01:38:58;100836.44;;;19.09;100.00
29839;BME280;18669;53.356;-1.464;2022-08-25T01:43:54;100826.50;;;19.13;100.00
29839;BME280;18669;53.356;-1.464;2022-08-25T01:46:20;100832.06;;;19.08;100.00
29839;BME280;18669;53.356;-1.464;2022-08-25T01:48:47;100832.16;;;19.06;100.00
29839;BME280;18669;53.356;-1.464;2022-08-25T01:51:14;100828.38;;;19.11;100.00
29839;BME280;18669;53.356;-1.464;2022-08-25T01:53:41;100822.75;;;18.99;100.00
29839;BME280;18669;53.356;-1.464;2022-08-25T01:56:11;100825.34;;;19.01;100.00
29839;BME280;18669;53.356;-1.464;2022-08-25T01:58:40;100829.16;;;18.95;100.00
29839;BME280;18669;53.356;-1.464;2022-08-25T02:01:11;100835.41;;;18.96;100.00
29839;BME280;18669;53.356;-1.464;2022-08-25T02:03:40;100841.63;;;18.94;100.00
29839;BME280;18669;53.356;-1.464;2022-08-25T02:06:07;100837.81;;;18.83;100.00
29839;BME280;18669;53.356;-1.464;2022-08-25T02:08:34;100833.56;;;18.78;100.00
29839;BME280;18669;53.356;-1.464;2022-08-25T02:11:01;100838.13;;;18.76;100.00
29839;BME280;18669;53.356;-1.464;2022-08-25T02:13:27;100832.78;;;18.76;100.00
29839;BME280;18669;53.356;-1.464;2022-08-25T02:15:56;100832.47;;;18.83;100.00
29839;BME280;18669;53.356;-1.464;2022-08-25T02:18:23;100823.91;;;18.76;100.00
29839;BME280;18669;53.356;-1.464;2022-08-25T02:20:49;100824.78;;;18.76;100.00
29839;BME280;18669;53.356;-1.464;2022-08-25T02:23:15;100832.53;;;18.81;100.00
29839;BME280;18669;53.356;-1.464;2022-08-25T02:25:42;100834.09;;;18.85;100.00
29839;BME280;18669;53.356;-1.464;2022-08-25T02:28:09;100828.63;;;18.88;100.00
29839;BME280;18669;53.356;-1.464;2022-08-25T02:30:36;100831.69;;;18.98;100.00
29839;BME280;18669;53.356;-1.464;2022-08-25T02:33:03;100828.38;;;18.93;100.00
29839;BME280;18669;53.356;-1.464;2022-08-25T02:35:29;100834.75;;;18.90;100.00
29839;BME280;18669;53.356;-1.464;2022-08-25T02:37:55;100836.72;;;18.87;100.00
29839;BME280;18669;53.356;-1.464;2022-08-25T02:40:22;100831.13;;;18.91;100.00
29839;BME280;18669;53.356;-1.464;2022-08-25T02:42:49;100824.16;;;18.89;100.00
29839;BME280;18669;53.356;-1.464;2022-08-25T02:45:17;100826.63;;;18.92;100.00
29839;BME280;18669;53.356;-1.464;2022-08-25T02:47:44;100829.97;;;18.79;100.00
29839;BME280;18669;53.356;-1.464;2022-08-25T02:50:10;100826.53;;;18.77;100.00
29839;BME280;18669;53.356;-1.464;2022-08-25T02:52:37;100816.81;;;18.76;100.00
29839;BME280;18669;53.356;-1.464;2022-08-25T02:55:06;100822.75;;;18.82;100.00
29839;BME280;18669;53.356;-1.464;2022-08-25T02:57:33;100825.09;;;18.70;100.00
29839;BME280;18669;53.356;-1.464;2022-08-25T03:00:02;100822.97;;;18.77;100.00
29839;BME280;18669;53.356;-1.464;2022-08-25T03:02:29;100817.06;;;18.72;100.00
29839;BME280;18669;53.356;-1.464;2022-08-25T03:04:56;100817.59;;;18.78;100.00
29839;BME280;18669;53.356;-1.464;2022-08-25T03:07:23;100812.25;;;18.78;100.00
29839;BME280;18669;53.356;-1.464;2022-08-25T03:09:49;100797.44;;;18.73;100.00
29839;BME280;18669;53.356;-1.464;2022-08-25T03:12:15;100806.19;;;18.75;100.00
29839;BME280;18669;53.356;-1.464;2022-08-25T03:14:41;100800.72;;;18.78;100.00
29839;BME280;18669;53.356;-1.464;2022-08-25T03:17:08;100799.72;;;18.81;100.00
29839;BME280;18669;53.356;-1.464;2022-08-25T03:19:35;100803.16;;;18.83;100.00
29839;BME280;18669;53.356;-1.464;2022-08-25T03:22:01;100790.53;;;18.86;100.00
29839;BME280;18669;53.356;-1.464;2022-08-25T03:24:27;100781.22;;;18.77;100.00
29839;BME280;18669;53.356;-1.464;2022-08-25T03:26:54;100783.41;;;18.69;100.00
29839;BME280;18669;53.356;-1.464;2022-08-25T03:29:23;100777.75;;;18.75;100.00
29839;BME280;18669;53.356;-1.464;2022-08-25T03:31:50;100784.81;;;18.59;100.00
29839;BME280;18669;53.356;-1.464;2022-08-25T03:34:18;100781.47;;;18.55;100.00
29839;BME280;18669;53.356;-1.464;2022-08-25T03:36:46;100784.91;;;18.57;100.00
29839;BME280;18669;53.356;-1.464;2022-08-25T03:39:13;100788.03;;;18.48;100.00
29839;BME280;18669;53.356;-1.464;2022-08-25T03:41:39;100800.03;;;18.39;100.00
29839;BME280;18669;53.356;-1.464;2022-08-25T03:44:06;100807.63;;;18.47;100.00
29839;BME280;18669;53.356;-1.464;2022-08-25T03:46:38;100800.44;;;18.49;100.00
29839;BME280;18669;53.356;-1.464;2022-08-25T03:49:06;100810.59;;;18.41;100.00
29839;BME280;18669;53.356;-1.464;2022-08-25T03:51:42;100807.41;;;18.52;100.00
29839;BME280;18669;53.356;-1.464;2022-08-25T03:54:09;100794.41;;;18.45;100.00
29839;BME280;18669;53.356;-1.464;2022-08-25T03:56:36;100795.25;;;18.46;100.00
29839;BME280;18669;53.356;-1.464;2022-08-25T03:59:04;100793.53;;;18.45;100.00
29839;BME280;18669;53.356;-1.464;2022-08-25T04:01:31;100801.53;;;18.45;100.00
29839;BME280;18669;53.356;-1.464;2022-08-25T04:04:02;100795.19;;;18.47;100.00
29839;BME280;18669;53.356;-1.464;2022-08-25T04:06:30;100796.19;;;18.45;100.00
29839;BME280;18669;53.356;-1.464;2022-08-25T04:08:57;100789.72;;;18.51;100.00
29839;BME280;18669;53.356;-1.464;2022-08-25T04:11:24;100785.84;;;18.56;100.00
29839;BME280;18669;53.356;-1.464;2022-08-25T04:13:51;100785.53;;;18.62;100.00
29839;BME280;18669;53.356;-1.464;2022-08-25T04:16:21;100771.75;;;18.72;100.00
29839;BME280;18669;53.356;-1.464;2022-08-25T04:18:49;100769.41;;;18.66;100.00
29839;BME280;18669;53.356;-1.464;2022-08-25T04:21:17;100756.84;;;18.68;100.00
29839;BME280;18669;53.356;-1.464;2022-08-25T04:23:45;100754.19;;;18.68;100.00
29839;BME280;18669;53.356;-1.464;2022-08-25T04:26:21;100758.47;;;18.70;100.00
29839;BME280;18669;53.356;-1.464;2022-08-25T04:28:48;100752.31;;;18.52;100.00
29839;BME280;18669;53.356;-1.464;2022-08-25T04:31:15;100762.72;;;18.57;100.00
29839;BME280;18669;53.356;-1.464;2022-08-25T04:33:42;100766.72;;;18.48;100.00
29839;BME280;18669;53.356;-1.464;2022-08-25T04:36:10;100766.84;;;18.46;100.00
29839;BME280;18669;53.356;-1.464;2022-08-25T04:38:40;100772.31;;;18.43;100.00
29839;BME280;18669;53.356;-1.464;2022-08-25T04:41:08;100766.84;;;18.46;100.00
29839;BME280;18669;53.356;-1.464;2022-08-25T04:43:36;100765.56;;;18.54;100.00
29839;BME280;18669;53.356;-1.464;2022-08-25T04:46:15;100769.72;;;18.59;100.00
29839;BME280;18669;53.356;-1.464;2022-08-25T04:48:42;100776.38;;;18.51;100.00
29839;BME280;18669;53.356;-1.464;2022-08-25T04:51:12;100765.56;;;18.54;100.00
29839;BME280;18669;53.356;-1.464;2022-08-25T04:53:39;100763.84;;;18.53;100.00
29839;BME280;18669;53.356;-1.464;2022-08-25T04:56:08;100768.06;;;18.57;100.00
29839;BME280;18669;53.356;-1.464;2022-08-25T04:58:35;100765.47;;;18.55;100.00
29839;BME280;18669;53.356;-1.464;2022-08-25T05:01:06;100775.66;;;18.64;100.00
29839;BME280;18669;53.356;-1.464;2022-08-25T05:03:35;100776.78;;;18.60;100.00
29839;BME280;18669;53.356;-1.464;2022-08-25T05:06:03;100787.19;;;18.65;100.00
29839;BME280;18669;53.356;-1.464;2022-08-25T05:08:30;100786.69;;;18.57;100.00
29839;BME280;18669;53.356;-1.464;2022-08-25T05:10:56;100788.91;;;18.66;100.00
29839;BME280;18669;53.356;-1.464;2022-08-25T05:13:24;100789.28;;;18.76;100.00
29839;BME280;18669;53.356;-1.464;2022-08-25T05:15:54;100790.78;;;18.82;100.00
29839;BME280;18669;53.356;-1.464;2022-08-25T05:18:27;100781.22;;;18.77;100.00
29839;BME280;18669;53.356;-1.464;2022-08-25T05:20:54;100783.41;;;18.69;100.00
29839;BME280;18669;53.356;-1.464;2022-08-25T05:23:22;100783.66;;;18.64;100.00
29839;BME280;18669;53.356;-1.464;2022-08-25T05:25:50;100784.66;;;18.62;100.00
29839;BME280;18669;53.356;-1.464;2022-08-25T05:28:18;100789.06;;;18.63;100.00
29839;BME280;18669;53.356;-1.464;2022-08-25T05:30:45;100796.19;;;18.62;100.00
29839;BME280;18669;53.356;-1.464;2022-08-25T05:33:14;100793.69;;;18.59;100.00
29839;BME280;18669;53.356;-1.464;2022-08-25T05:35:41;100793.06;;;18.54;100.00
29839;BME280;18669;53.356;-1.464;2022-08-25T05:38:08;100795.72;;;18.54;100.00
29839;BME280;18669;53.356;-1.464;2022-08-25T05:40:35;100802.00;;;18.53;100.00
29839;BME280;18669;53.356;-1.464;2022-08-25T05:43:05;100800.22;;;18.54;100.00
29839;BME280;18669;53.356;-1.464;2022-08-25T05:45:32;100816.94;;;18.56;100.00
29839;BME280;18669;53.356;-1.464;2022-08-25T05:47:58;100813.44;;;18.55;100.00
29839;BME280;18669;53.356;-1.464;2022-08-25T05:50:24;100816.03;;;18.39;100.00
29839;BME280;18669;53.356;-1.464;2022-08-25T05:52:50;100818.69;;;18.39;100.00
29839;BME280;18669;53.356;-1.464;2022-08-25T05:55:22;100812.81;;;18.32;100.00
29839;BME280;18669;53.356;-1.464;2022-08-25T05:57:48;100817.28;;;18.32;100.00
29839;BME280;18669;53.356;-1.464;2022-08-25T06:00:15;100805.28;;;18.23;100.00
29839;BME280;18669;53.356;-1.464;2022-08-25T06:02:42;100815.69;;;18.28;100.00
29839;BME280;18669;53.356;-1.464;2022-08-25T06:05:18;100815.00;;;18.42;100.00
29839;BME280;18669;53.356;-1.464;2022-08-25T06:07:46;100817.22;;;18.33;100.00
29839;BME280;18669;53.356;-1.464;2022-08-25T06:10:13;100805.81;;;18.30;100.00
29839;BME280;18669;53.356;-1.464;2022-08-25T06:12:42;100803.56;;;18.40;100.00
29839;BME280;18669;53.356;-1.464;2022-08-25T06:15:14;100806.47;;;18.35;100.00
29839;BME280;18669;53.356;-1.464;2022-08-25T06:17:41;100812.97;;;18.29;100.00
29839;BME280;18669;53.356;-1.464;2022-08-25T06:20:11;100814.34;;;18.37;100.00
29839;BME280;18669;53.356;-1.464;2022-08-25T06:22:42;100815.38;;;18.34;100.00
29839;BME280;18669;53.356;-1.464;2022-08-25T06:25:11;100817.59;;;18.43;100.00
29839;BME280;18669;53.356;-1.464;2022-08-25T06:27:41;100818.84;;;18.36;100.00
29839;BME280;18669;53.356;-1.464;2022-08-25T06:30:10;100808.09;;;18.38;100.00
29839;BME280;18669;53.356;-1.464;2022-08-25T06:32:38;100819.63;;;18.38;100.00
29839;BME280;18669;53.356;-1.464;2022-08-25T06:35:07;100819.47;;;18.41;100.00
29839;BME280;18669;53.356;-1.464;2022-08-25T06:37:35;100821.34;;;18.39;100.00
29839;BME280;18669;53.356;-1.464;2022-08-25T06:40:04;100824.66;;;18.44;100.00
29839;BME280;18669;53.356;-1.464;2022-08-25T06:42:32;100819.00;;;18.33;100.00
29839;BME280;18669;53.356;-1.464;2022-08-25T06:44:59;100816.56;;;18.46;100.00
29839;BME280;18669;53.356;-1.464;2022-08-25T06:47:26;100814.38;;;18.54;100.00
29839;BME280;18669;53.356;-1.464;2022-08-25T06:49:54;100806.47;;;18.53;100.00
29839;BME280;18669;53.356;-1.464;2022-08-25T06:52:20;100808.13;;;18.55;100.00
29839;BME280;18669;53.356;-1.464;2022-08-25T06:54:47;100823.53;;;18.66;100.00
29839;BME280;18669;53.356;-1.464;2022-08-25T06:57:13;100817.22;;;18.69;100.00
29839;BME280;18669;53.356;-1.464;2022-08-25T06:59:40;100821.25;;;18.76;100.00
29839;BME280;18669;53.356;-1.464;2022-08-25T07:02:06;100825.75;;;18.75;100.00
29839;BME280;18669;53.356;-1.464;2022-08-25T07:04:34;100823.75;;;18.79;100.00
29839;BME280;18669;53.356;-1.464;2022-08-25T07:07:02;100829.19;;;18.60;100.00
29839;BME280;18669;53.356;-1.464;2022-08-25T07:09:28;100827.69;;;18.54;100.00
29839;BME280;18669;53.356;-1.464;2022-08-25T07:11:54;100832.25;;;18.52;100.00
29839;BME280;18669;53.356;-1.464;2022-08-25T07:14:21;100825.19;;;18.51;100.00
29839;BME280;18669;53.356;-1.464;2022-08-25T07:16:48;100831.94;;;18.58;100.00
29839;BME280;18669;53.356;-1.464;2022-08-25T07:19:14;100829.44;;;18.55;100.00
29839;BME280;18669;53.356;-1.464;2022-08-25T07:21:41;100829.59;;;18.70;100.00
29839;BME280;18669;53.356;-1.464;2022-08-25T07:24:09;100843.84;;;18.69;100.00
29839;BME280;18669;53.356;-1.464;2022-08-25T07:26:38;100841.50;;;18.62;100.00
29839;BME280;18669;53.356;-1.464;2022-08-25T07:29:12;100844.47;;;18.74;100.00
29839;BME280;18669;53.356;-1.464;2022-08-25T07:31:39;100836.72;;;18.52;100.00
29839;BME280;18669;53.356;-1.464;2022-08-25T07:34:06;100844.00;;;18.48;100.00
29839;BME280;18669;53.356;-1.464;2022-08-25T07:36:52;100846.75;;;18.46;100.00
29839;BME280;18669;53.356;-1.464;2022-08-25T07:39:18;100850.06;;;18.52;100.00
29839;BME280;18669;53.356;-1.464;2022-08-25T07:41:44;100852.53;;;18.55;100.00
29839;BME280;18669;53.356;-1.464;2022-08-25T07:44:12;100847.63;;;18.64;100.00
29839;BME280;18669;53.356;-1.464;2022-08-25T07:46:40;100840.88;;;18.57;100.00
29839;BME280;18669;53.356;-1.464;2022-08-25T07:49:08;100838.44;;;18.53;100.00
29839;BME280;18669;53.356;-1.464;2022-08-25T07:51:34;100842.22;;;18.48;100.00
29839;BME280;18669;53.356;-1.464;2022-08-25T07:54:00;100838.66;;;18.48;100.00
29839;BME280;18669;53.356;-1.464;2022-08-25T07:56:26;100844.78;;;18.50;100.00
29839;BME280;18669;53.356;-1.464;2022-08-25T07:58:52;100840.38;;;18.49;100.00
29839;BME280;18669;53.356;-1.464;2022-08-25T08:01:22;100840.78;;;18.59;100.00
29839;BME280;18669;53.356;-1.464;2022-08-25T08:03:51;100850.75;;;18.55;100.00
29839;BME280;18669;53.356;-1.464;2022-08-25T08:06:22;100851.22;;;18.63;100.00
29839;BME280;18669;53.356;-1.464;2022-08-25T08:08:50;100852.53;;;18.55;100.00
29839;BME280;18669;53.356;-1.464;2022-08-25T08:11:28;100852.94;;;18.47;100.00
29839;BME280;18669;53.356;-1.464;2022-08-25T08:13:56;100847.34;;;18.34;100.00
29839;BME280;18669;53.356;-1.464;2022-08-25T08:16:25;100853.47;;;18.18;100.00
29839;BME280;18669;53.356;-1.464;2022-08-25T08:18:52;100847.53;;;18.12;100.00
29839;BME280;18669;53.356;-1.464;2022-08-25T08:21:25;100852.44;;;18.21;100.00
29839;BME280;18669;53.356;-1.464;2022-08-25T08:23:54;100854.53;;;18.14;100.00
29839;BME280;18669;53.356;-1.464;2022-08-25T08:26:21;100866.69;;;18.20;100.00
29839;BME280;18669;53.356;-1.464;2022-08-25T08:28:49;100877.09;;;18.25;100.00
29839;BME280;18669;53.356;-1.464;2022-08-25T08:31:22;100866.09;;;18.32;100.00
29839;BME280;18669;53.356;-1.464;2022-08-25T08:33:49;100872.94;;;18.19;100.00
29839;BME280;18669;53.356;-1.464;2022-08-25T08:36:16;100869.63;;;18.14;100.00
29839;BME280;18669;53.356;-1.464;2022-08-25T08:38:45;100870.44;;;18.16;100.00
29839;BME280;18669;53.356;-1.464;2022-08-25T08:53:18;100876.97;;;18.09;100.00
29839;BME280;18669;53.356;-1.464;2022-08-25T08:55:48;100876.13;;;18.08;100.00
29839;BME280;18669;53.356;-1.464;2022-08-25T08:58:19;100879.44;;;17.94;100.00
29839;BME280;18669;53.356;-1.464;2022-08-25T09:00:49;100869.47;;;17.99;100.00
29839;BME280;18669;53.356;-1.464;2022-08-25T09:03:28;100872.72;;;18.04;100.00
29839;BME280;18669;53.356;-1.464;2022-08-25T09:06:00;100872.13;;;17.99;100.00
29839;BME280;18669;53.356;-1.464;2022-08-25T09:08:27;100866.47;;;17.86;100.00
29839;BME280;18669;53.356;-1.464;2022-08-25T09:11:12;100865.25;;;17.94;100.00
29839;BME280;18669;53.356;-1.464;2022-08-25T09:19:46;100887.56;;;17.72;100.00
29839;BME280;18669;53.356;-1.464;2022-08-25T09:25:32;100890.28;;;17.70;100.00
29839;BME280;18669;53.356;-1.464;2022-08-25T09:33:32;100907.63;;;17.60;100.00
29839;BME280;18669;53.356;-1.464;2022-08-25T09:35:59;100901.38;;;17.40;100.00
29839;BME280;18669;53.356;-1.464;2022-08-25T09:38:26;100902.44;;;17.36;100.00
29839;BME280;18669;53.356;-1.464;2022-08-25T09:40:56;100908.06;;;17.30;100.00
29839;BME280;18669;53.356;-1.464;2022-08-25T09:45:59;100910.34;;;16.76;100.00
29839;BME280;18669;53.356;-1.464;2022-08-25T09:48:41;100908.22;;;16.84;100.00
29839;BME280;18669;53.356;-1.464;2022-08-25T09:53:58;100905.06;;;16.96;100.00
29839;BME280;18669;53.356;-1.464;2022-08-25T09:56:28;100898.22;;;16.91;100.00
29839;BME280;18669;53.356;-1.464;2022-08-25T09:59:18;100895.56;;;16.91;100.00
29839;BME280;18669;53.356;-1.464;2022-08-25T10:01:51;100886.28;;;16.79;100.00
29839;BME280;18669;53.356;-1.464;2022-08-25T10:04:35;100890.88;;;16.75;100.00
29839;BME280;18669;53.356;-1.464;2022-08-25T10:07:19;100892.72;;;16.52;100.00
29839;BME280;18669;53.356;-1.464;2022-08-25T10:10:00;100885.28;;;16.61;100.00
29839;BME280;18669;53.356;-1.464;2022-08-25T10:12:42;100877.28;;;16.61;100.00
29839;BME280;18669;53.356;-1.464;2022-08-25T10:15:19;100875.19;;;16.69;100.00
29839;BME280;18669;53.356;-1.464;2022-08-25T10:17:46;100872.78;;;16.63;100.00
29839;BME280;18669;53.356;-1.464;2022-08-25T10:20:25;100867.84;;;16.76;100.00
29839;BME280;18669;53.356;-1.464;2022-08-25T10:23:09;100876.28;;;16.85;100.00
29839;BME280;18669;53.356;-1.464;2022-08-25T10:25:40;100872.03;;;16.81;100.00
29839;BME280;18669;53.356;-1.464;2022-08-25T10:33:33;100872.22;;;16.77;100.00
29839;BME280;18669;53.356;-1.464;2022-08-25T10:36:13;100878.53;;;16.74;100.00
29839;BME280;18669;53.356;-1.464;2022-08-25T10:38:44;100870.16;;;16.83;100.00
29839;BME280;18669;53.356;-1.464;2022-08-25T10:41:29;100866.19;;;16.94;100.00
29839;BME280;18669;53.356;-1.464;2022-08-25T10:44:12;100855.44;;;16.97;100.00
29839;BME280;18669;53.356;-1.464;2022-08-25T10:47:16;100854.19;;;17.06;100.00
29839;BME280;18669;53.356;-1.464;2022-08-25T10:49:51;100841.06;;;17.01;100.00
29839;BME280;18669;53.356;-1.464;2022-08-25T11:00:36;100828.78;;;17.57;100.00
29839;BME280;18669;53.356;-1.464;2022-08-25T11:05:42;100829.53;;;17.61;100.00
29839;BME280;18669;53.356;-1.464;2022-08-25T11:11:31;100828.50;;;17.44;100.00
29839;BME280;18669;53.356;-1.464;2022-08-25T11:14:10;100839.88;;;17.48;100.00
29839;BME280;18669;53.356;-1.464;2022-08-25T11:16:44;100833.78;;;17.46;100.00
29839;BME280;18669;53.356;-1.464;2022-08-25T11:19:25;100839.22;;;17.43;100.00
29839;BME280;18669;53.356;-1.464;2022-08-25T11:22:13;100837.69;;;17.75;100.00
29839;BME280;18669;53.356;-1.464;2022-08-25T11:30:16;100844.69;;;17.97;100.00
29839;BME280;18669;53.356;-1.464;2022-08-25T11:32:52;100834.84;;;17.99;100.00
29839;BME280;18669;53.356;-1.464;2022-08-25T11:35:28;100837.44;;;18.01;100.00
29839;BME280;18669;53.356;-1.464;2022-08-25T11:49:14;100832.59;;;18.09;100.00
29839;BME280;18669;53.356;-1.464;2022-08-25T11:51:48;100836.59;;;18.00;100.00
29839;BME280;18669;53.356;-1.464;2022-08-25T11:54:28;100836.41;;;18.03;100.00
29839;BME280;18669;53.356;-1.464;2022-08-25T11:56:59;100839.00;;;18.05;100.00
29839;BME280;18669;53.356;-1.464;2022-08-25T12:00:34;100825.31;;;18.13;100.00
29839;BME280;18669;53.356;-1.464;2022-08-25T12:06:32;100847.25;;;18.18;100.00
29839;BME280;18669;53.356;-1.464;2022-08-25T12:19:28;100844.69;;;17.97;100.00
29839;BME280;18669;53.356;-1.464;2022-08-25T12:33:00;100837.44;;;18.01;100.00
29839;BME280;18669;53.356;-1.464;2022-08-25T12:36:00;100850.81;;;17.99;100.00
29839;BME280;18669;53.356;-1.464;2022-08-25T12:38:42;100848.19;;;17.98;100.00
29839;BME280;18669;53.356;-1.464;2022-08-25T12:41:12;100846.75;;;17.90;100.00
29839;BME280;18669;53.356;-1.464;2022-08-25T12:43:43;100849.88;;;18.00;100.00
29839;BME280;18669;53.356;-1.464;2022-08-25T12:46:36;100848.81;;;18.22;100.00
29839;BME280;18669;53.356;-1.464;2022-08-25T12:54:27;100853.25;;;18.58;100.00
29839;BME280;18669;53.356;-1.464;2022-08-25T12:57:03;100861.06;;;18.44;100.00
29839;BME280;18669;53.356;-1.464;2022-08-25T13:04:57;100863.56;;;18.47;100.00
29839;BME280;18669;53.356;-1.464;2022-08-25T13:13:09;100853.75;;;18.30;100.00
29839;BME280;18669;53.356;-1.464;2022-08-25T13:15:46;100866.13;;;18.13;100.00
29839;BME280;18669;53.356;-1.464;2022-08-25T13:18:29;100865.78;;;18.02;100.00
29839;BME280;18669;53.356;-1.464;2022-08-25T13:21:23;100857.19;;;17.95;100.00
29839;BME280;18669;53.356;-1.464;2022-08-25T13:23:54;100871.50;;;17.93;100.00
29839;BME280;18669;53.356;-1.464;2022-08-25T13:26:27;100869.47;;;17.99;100.00
29839;BME280;18669;53.356;-1.464;2022-08-25T13:29:00;100873.63;;;18.05;100.00
29839;BME280;18669;53.356;-1.464;2022-08-25T13:31:28;100875.75;;;17.97;100.00
29839;BME280;18669;53.356;-1.464;2022-08-25T13:33:59;100870.22;;;18.01;100.00
29839;BME280;18669;53.356;-1.464;2022-08-25T13:36:31;100883.63;;;18.00;100.00
29839;BME280;18669;53.356;-1.464;2022-08-25T13:39:21;100889.59;;;18.05;100.00
29839;BME280;18669;53.356;-1.464;2022-08-25T13:41:53;100892.31;;;18.03;100.00
29839;BME280;18669;53.356;-1.464;2022-08-25T13:44:22;100888.28;;;18.14;100.00
29839;BME280;18669;53.356;-1.464;2022-08-25T13:47:10;100895.00;;;18.40;100.00
29839;BME280;18669;53.356;-1.464;2022-08-25T13:49:38;100897.44;;;18.45;100.00
29839;BME280;18669;53.356;-1.464;2022-08-25T13:52:05;100889.44;;;18.45;100.00
29839;BME280;18669;53.356;-1.464;2022-08-25T13:54:38;100887.97;;;18.92;100.00
29839;BME280;18669;53.356;-1.464;2022-08-25T13:59:39;100892.63;;;19.40;100.00
29839;BME280;18669;53.356;-1.464;2022-08-25T14:02:08;100898.38;;;19.65;100.00
29839;BME280;18669;53.356;-1.464;2022-08-25T14:09:55;100886.31;;;21.30;100.00
29839;BME280;18669;53.356;-1.464;2022-08-25T14:12:40;100884.38;;;21.61;100.00
29839;BME280;18669;53.356;-1.464;2022-08-25T14:15:10;100886.38;;;21.57;100.00
29839;BME280;18669;53.356;-1.464;2022-08-25T14:17:39;100886.59;;;21.54;100.00
29839;BME280;18669;53.356;-1.464;2022-08-25T14:20:15;100878.72;;;21.22;100.00
29839;BME280;18669;53.356;-1.464;2022-08-25T14:22:41;100874.22;;;21.08;100.00
29839;BME280;18669;53.356;-1.464;2022-08-25T14:25:09;100883.78;;;20.98;100.00
29839;BME280;18669;53.356;-1.464;2022-08-25T14:27:36;100865.69;;;20.87;100.00
29839;BME280;18669;53.356;-1.464;2022-08-25T14:30:02;100876.03;;;20.93;100.00
29839;BME280;18669;53.356;-1.464;2022-08-25T14:32:30;100880.31;;;20.65;100.00
29839;BME280;18669;53.356;-1.464;2022-08-25T14:34:57;100884.66;;;20.52;100.00
29839;BME280;18669;53.356;-1.464;2022-08-25T14:37:23;100872.53;;;20.46;100.00
29839;BME280;18669;53.356;-1.464;2022-08-25T14:39:51;100869.91;;;20.61;100.00
29839;BME280;18669;53.356;-1.464;2022-08-25T14:42:19;100889.09;;;20.83;100.00
29839;BME280;18669;53.356;-1.464;2022-08-25T14:44:45;100876.34;;;21.46;100.00
29839;BME280;18669;53.356;-1.464;2022-08-25T14:47:11;100879.63;;;22.08;100.00